Arley, AL

5:46 AM CDT on August 22, 2014 (GMT -0500)
Haleyville | Change Station
CLOSE
Current Station
Airport
Location: Haleyville,
Elevation: 932 ft
Nearby Weather Stations
Active Advisory: Heat Advisory

Elev 932 ft 34.28 °N, 87.60 °W | Updated 50 minutes ago

Clear
Clear
73 °F
Feels Like 73 °F
N
0
Wind Variable Wind from North

Today
High -- | Low -- °F
--% Chance of Precip.
Yesterday
High -- | Low -- °F
Precip. -- in
6:15 AM 7:27 PM
Waning Crescent, 9% visible
Pressure 30.15 in
Visibility 10.0 miles
Clouds Clear
Dew Point 73 °F
Humidity 100%
Rainfall 0.00 in
Snow Depth Not available.
UV 0 out of 12
Pollen 9.00 out of 12
Ozone Good
PM2.5 Moderate
Flu Activity Not available.
METAR K1M4 220956Z AUTO 00000KT 10SM CLR 23/23 A3012 RMK AO2 T02270227 SLP210

More Conditions Fewer Conditions

Pressure 30.15 in
Visibility 10.0 miles
Clouds Clear
Dew Point 73 °F
Humidity 100%
Rainfall 0.00 in
Snow Depth Not available.
UV 0 out of 12
Pollen 9.00 out of 12
Ozone Good
PM2.5 Moderate
Flu Activity Not available.
METAR K1M4 220956Z AUTO 00000KT 10SM CLR 23/23 A3012 RMK AO2 T02270227 SLP210

More Conditions Fewer Conditions

10-Day Weather Forecast

Almanac

Astronomy

Aug. 22, 2014 Rise Set
Actual Time 6:15 AM CDT 7:27 PM CDT
Civil Twilight 5:49 AM CDT 7:54 PM CDT
Nautical Twilight 5:18 AM CDT 8:25 PM CDT
Astronomical Twilight 4:45 AM CDT 8:57 PM CDT
Moon 3:41 AM CDT 5:33 PM CDT
Length of Visible Light 14h 04m
Length of Day
13h 12m
Tomorrow will be 1m 57s shorter.
Waning Crescent, 9% of the Moon is Illuminated
Today
Waning Crescent
Aug 25
New
Sep 2
First Quarter
Sep 8
Full
Sep 15
Last Quarter

Today's Extremes

State Highs State Lows

Community

WunderPhotos

Upload Photos

1,746,151 photos uploaded!

Nearby

Air Quality

  Air Quality AQ Index Pollutant
Yesterday Good
PM10
Yesterday Good
OZONE
Current Moderate
PM2.5
Current Good
OZONE
Friday Moderate
PM2.5
Friday Good
OZONE

Snow Depth

Station Depth Elevation
No new snow has been reported.

Earthquake Activity

City Distance Mag. Time & Date
No recent earthquake activity has been reported nearby.
Minimum magnitude displayed is 2.5.

Coastal Water Temperatures

Place Temperature
No Stations Reporting

Nearby Weather Stations